createdAt,value
2019-01-22T00:00:00.505Z,20.17
2019-01-22T00:02:27.387Z,24.17
2019-01-22T00:04:54.071Z,21.30
2019-01-22T00:07:20.353Z,21.83
2019-01-22T00:09:46.650Z,21.47
2019-01-22T00:12:13.264Z,20.90
2019-01-22T00:14:39.906Z,26.50
2019-01-22T00:17:06.530Z,26.17
2019-01-22T00:19:33.201Z,23.67
2019-01-22T00:21:59.821Z,23.93
2019-01-22T00:24:26.677Z,24.43
2019-01-22T00:26:53.288Z,32.47
2019-01-22T00:29:20.113Z,23.73
2019-01-22T00:31:46.375Z,23.77
2019-01-22T00:34:12.993Z,24.37
2019-01-22T00:36:39.532Z,25.57
2019-01-22T00:39:06.244Z,22.80
2019-01-22T00:41:33.205Z,18.87
2019-01-22T00:44:00.605Z,26.47
2019-01-22T00:46:26.891Z,24.63
2019-01-22T00:48:53.518Z,27.90
2019-01-22T00:51:20.168Z,19.43
2019-01-22T00:53:46.794Z,22.53
2019-01-22T00:56:13.083Z,20.53
2019-01-22T00:58:40.085Z,28.07
2019-01-22T01:01:06.926Z,22.17
2019-01-22T01:03:33.558Z,26.10
2019-01-22T01:05:59.850Z,23.43
2019-01-22T01:08:26.114Z,24.87
2019-01-22T01:10:52.405Z,28.40
2019-01-22T01:13:18.670Z,25.67
2019-01-22T01:15:45.518Z,21.60
2019-01-22T01:18:12.202Z,22.63
2019-01-22T01:20:38.793Z,26.87
2019-01-22T01:23:05.050Z,19.43
2019-01-22T01:25:31.354Z,28.00
2019-01-22T01:27:57.969Z,21.13
2019-01-22T01:30:24.290Z,24.27
2019-01-22T01:32:51.321Z,21.47
2019-01-22T01:35:17.590Z,24.00
2019-01-22T01:37:44.197Z,25.30
2019-01-22T01:40:12.026Z,22.47
2019-01-22T01:42:38.405Z,22.60
2019-01-22T01:45:05.842Z,23.77
2019-01-22T01:47:32.485Z,21.27
2019-01-22T01:49:59.401Z,25.07
2019-01-22T01:52:26.056Z,23.07
2019-01-22T01:54:52.742Z,21.30
2019-01-22T01:57:19.045Z,24.23
2019-01-22T01:59:45.305Z,27.70
2019-01-22T02:02:11.598Z,20.93
2019-01-22T02:04:37.894Z,20.50
2019-01-22T02:07:04.669Z,20.93
2019-01-22T02:09:31.292Z,22.80
2019-01-22T02:11:57.965Z,24.43
2019-01-22T02:14:26.401Z,25.33
2019-01-22T02:16:54.949Z,28.43
2019-01-22T02:19:28.073Z,23.60
2019-01-22T02:22:02.821Z,22.23
2019-01-22T02:24:34.193Z,24.10
2019-01-22T02:27:14.676Z,19.93
2019-01-22T02:29:50.469Z,22.63
2019-01-22T02:32:39.938Z,18.40
2019-01-22T02:35:31.046Z,19.47
2019-01-22T02:38:16.027Z,18.97
2019-01-22T02:40:47.318Z,17.80
2019-01-22T02:43:18.605Z,18.63
2019-01-22T02:46:11.906Z,22.23
2019-01-22T02:48:52.610Z,19.43
2019-01-22T02:51:48.071Z,22.47
2019-01-22T02:54:16.674Z,20.23
2019-01-22T02:57:08.092Z,24.40
2019-01-22T02:59:48.835Z,19.60
2019-01-22T03:02:32.258Z,21.87
2019-01-22T03:05:02.343Z,20.33
2019-01-22T03:07:35.118Z,19.70
2019-01-22T03:10:35.561Z,20.57
2019-01-22T03:13:10.249Z,19.17
2019-01-22T03:15:38.810Z,17.90
2019-01-22T03:18:37.729Z,21.77
2019-01-22T03:21:30.704Z,22.97
2019-01-22T03:23:59.200Z,21.03
2019-01-22T03:26:51.534Z,21.80
2019-01-22T03:29:25.867Z,24.87
2019-01-22T03:32:17.103Z,21.57
2019-01-22T03:34:48.494Z,19.97
2019-01-22T03:37:34.486Z,19.57
2019-01-22T03:40:07.281Z,22.60
2019-01-22T03:42:44.957Z,20.67
2019-01-22T03:45:30.189Z,21.83
2019-01-22T03:48:09.403Z,20.87
2019-01-22T03:50:44.058Z,21.23
2019-01-22T03:53:31.803Z,22.77
2019-01-22T03:56:00.336Z,22.07
2019-01-22T03:58:26.994Z,21.37
2019-01-22T04:00:55.769Z,23.90
2019-01-22T04:03:22.425Z,22.57
2019-01-22T04:05:49.174Z,22.07
2019-01-22T04:08:15.785Z,25.97
2019-01-22T04:10:42.350Z,21.70
2019-01-22T04:13:08.642Z,20.57
2019-01-22T04:15:36.033Z,21.37
2019-01-22T04:18:03.332Z,24.07
2019-01-22T04:20:29.946Z,20.73
2019-01-22T04:22:56.827Z,24.80
2019-01-22T04:25:31.377Z,22.97
2019-01-22T04:28:04.190Z,22.60
2019-01-22T04:30:32.701Z,21.03
2019-01-22T04:33:01.277Z,25.57
2019-01-22T04:35:34.382Z,26.23
2019-01-22T04:38:12.034Z,19.53
2019-01-22T04:40:43.545Z,22.97
2019-01-22T04:43:25.465Z,21.87
2019-01-22T04:45:53.987Z,23.47
2019-01-22T04:48:59.084Z,23.80
2019-01-22T04:51:30.346Z,17.03
2019-01-22T04:54:12.240Z,18.70
2019-01-22T04:56:48.299Z,19.13
2019-01-22T04:59:20.820Z,21.30
2019-01-22T05:02:04.636Z,25.87
2019-01-22T05:04:33.225Z,19.93
2019-01-22T05:07:01.743Z,18.53
2019-01-22T05:09:36.181Z,18.97
2019-01-22T05:12:13.707Z,19.40
2019-01-22T05:14:46.558Z,21.57
2019-01-22T05:17:22.746Z,20.87
2019-01-22T05:19:55.564Z,19.53
2019-01-22T05:22:42.015Z,22.73
2019-01-22T05:25:16.475Z,19.60
2019-01-22T05:28:03.362Z,18.77
2019-01-22T05:30:35.175Z,18.50
2019-01-22T05:33:15.728Z,23.13
2019-01-22T05:35:44.309Z,22.23
2019-01-22T05:38:29.381Z,19.80
2019-01-22T05:40:57.929Z,18.53
2019-01-22T05:43:38.449Z,24.13
2019-01-22T05:46:08.029Z,19.50
2019-01-22T05:48:38.088Z,19.70
2019-01-22T05:51:09.406Z,24.23
2019-01-22T05:54:07.834Z,26.70
2019-01-22T05:56:39.181Z,22.33
2019-01-22T05:59:19.809Z,22.77
2019-01-22T06:01:48.384Z,20.20
2019-01-22T06:04:36.308Z,16.23
2019-01-22T06:07:11.480Z,23.13
2019-01-22T06:09:45.851Z,18.43
2019-01-22T06:12:14.407Z,16.23
2019-01-22T06:14:46.421Z,19.97
2019-01-22T06:17:15.018Z,21.40
2019-01-22T06:19:43.550Z,18.80
2019-01-22T06:22:28.853Z,16.43
2019-01-22T06:25:06.252Z,17.20
2019-01-22T06:27:32.926Z,19.03
2019-01-22T06:30:07.321Z,16.30
2019-01-22T06:32:38.194Z,16.37
2019-01-22T06:35:09.761Z,17.07
2019-01-22T06:37:41.105Z,19.47
2019-01-22T06:40:09.679Z,20.20
2019-01-22T06:42:39.796Z,18.10
2019-01-22T06:45:14.178Z,16.13
2019-01-22T06:47:48.858Z,18.23
2019-01-22T06:50:20.465Z,18.67
2019-01-22T06:52:53.510Z,13.47
2019-01-22T06:55:34.104Z,17.67
2019-01-22T06:58:14.804Z,20.07
2019-01-22T07:00:59.783Z,18.17
2019-01-22T07:03:43.487Z,18.97
2019-01-22T07:06:29.948Z,17.23
2019-01-22T07:08:58.497Z,16.90
2019-01-22T07:11:37.653Z,17.57
2019-01-22T07:14:09.228Z,15.37
2019-01-22T07:16:42.081Z,17.70
2019-01-22T07:19:13.677Z,17.63
2019-01-22T07:21:52.601Z,18.93
2019-01-22T07:24:31.652Z,18.03
2019-01-22T07:27:13.689Z,17.07
2019-01-22T07:30:02.019Z,17.80
2019-01-22T07:32:47.241Z,19.00
2019-01-22T07:35:27.317Z,21.23
2019-01-22T07:38:09.395Z,19.77
2019-01-22T07:40:37.919Z,18.67
2019-01-22T07:43:06.426Z,19.20
2019-01-22T07:45:36.517Z,19.90
2019-01-22T07:48:06.557Z,19.07
2019-01-22T07:50:38.311Z,19.57
2019-01-22T07:53:12.661Z,20.10
2019-01-22T07:55:50.136Z,17.43
2019-01-22T07:58:18.671Z,15.40
2019-01-22T08:00:47.216Z,18.73
2019-01-22T08:03:52.484Z,20.40
2019-01-22T08:06:22.686Z,19.30
2019-01-22T08:09:07.878Z,20.67
2019-01-22T08:11:42.253Z,17.73
2019-01-22T08:14:41.250Z,16.47
2019-01-22T08:17:11.383Z,21.10
2019-01-22T08:19:56.576Z,17.37
2019-01-22T08:22:25.122Z,15.43
2019-01-22T08:25:25.498Z,17.67
2019-01-22T08:28:09.205Z,16.47
2019-01-22T08:30:54.356Z,16.17
2019-01-22T08:33:36.589Z,16.57
2019-01-22T08:36:27.686Z,16.90
2019-01-22T08:39:02.068Z,15.87
2019-01-22T08:41:30.580Z,18.77
2019-01-22T08:44:13.430Z,17.73
2019-01-22T08:46:41.959Z,18.37
2019-01-22T08:49:26.857Z,15.80
2019-01-22T08:51:58.221Z,17.83
2019-01-22T08:54:32.521Z,13.67
2019-01-22T08:57:19.237Z,16.17
2019-01-22T08:59:50.579Z,15.17
2019-01-22T09:02:28.468Z,18.17
2019-01-22T09:05:13.510Z,17.43
2019-01-22T09:07:52.469Z,17.80
2019-01-22T09:10:23.754Z,14.97
2019-01-22T09:13:16.195Z,18.10
2019-01-22T09:15:44.763Z,18.03
2019-01-22T09:18:17.658Z,17.03
2019-01-22T09:21:00.174Z,16.97
2019-01-22T09:23:39.318Z,16.73
2019-01-22T09:26:19.991Z,14.63
2019-01-22T09:28:57.401Z,18.03
2019-01-22T09:31:29.365Z,15.40
2019-01-22T09:34:16.817Z,16.87
2019-01-22T09:36:45.372Z,16.63
2019-01-22T09:39:12.302Z,17.27
2019-01-22T09:41:38.593Z,16.70
2019-01-22T09:44:04.958Z,21.13
2019-01-22T09:46:31.618Z,17.77
2019-01-22T09:48:58.244Z,18.63
2019-01-22T09:51:26.242Z,15.20
2019-01-22T09:53:52.863Z,16.50
2019-01-22T09:56:19.494Z,19.03
2019-01-22T09:58:46.185Z,19.40
2019-01-22T10:01:12.502Z,18.03
2019-01-22T10:03:39.153Z,18.97
2019-01-22T10:06:05.451Z,17.20
2019-01-22T10:08:32.480Z,18.73
2019-01-22T10:11:01.841Z,16.57
2019-01-22T10:13:27.204Z,16.50
2019-01-22T10:15:53.824Z,14.47
2019-01-22T10:18:20.466Z,20.13
2019-01-22T10:20:47.480Z,14.17
2019-01-22T10:23:14.197Z,16.53
2019-01-22T10:25:40.489Z,18.27
2019-01-22T10:28:07.338Z,19.40
2019-01-22T10:30:33.717Z,17.90
2019-01-22T10:33:00.011Z,16.17
2019-01-22T10:35:26.657Z,17.67
2019-01-22T10:37:53.052Z,16.10
2019-01-22T10:40:20.972Z,16.90
2019-01-22T10:42:47.611Z,16.97
2019-01-22T10:45:15.587Z,15.67
2019-01-22T10:47:44.546Z,15.83
2019-01-22T10:50:13.654Z,16.33
2019-01-22T10:52:40.310Z,18.60
2019-01-22T10:55:09.361Z,15.10
2019-01-22T10:57:35.634Z,14.57
2019-01-22T11:00:03.912Z,16.10
2019-01-22T11:02:30.147Z,15.90
2019-01-22T11:04:56.538Z,13.93
2019-01-22T11:07:23.422Z,13.30
2019-01-22T11:09:49.696Z,16.53
2019-01-22T11:12:16.312Z,16.27
2019-01-22T11:14:42.967Z,15.80
2019-01-22T11:17:09.591Z,14.50
2019-01-22T11:19:36.341Z,13.10
2019-01-22T11:22:02.803Z,15.40
2019-01-22T11:24:30.407Z,13.20
2019-01-22T11:26:57.282Z,13.17
2019-01-22T11:29:23.935Z,14.00
2019-01-22T11:31:51.349Z,12.43
2019-01-22T11:34:18.498Z,13.60
2019-01-22T11:36:45.873Z,15.80
2019-01-22T11:39:13.333Z,15.33
2019-01-22T11:41:39.565Z,12.27
2019-01-22T11:44:06.400Z,18.37
2019-01-22T11:46:33.012Z,15.30
2019-01-22T11:48:59.659Z,13.33
2019-01-22T11:51:26.291Z,15.03
2019-01-22T11:53:53.066Z,14.33
2019-01-22T11:56:20.704Z,13.03
2019-01-22T11:58:47.350Z,12.47
2019-01-22T12:01:13.985Z,15.10
2019-01-22T12:03:40.632Z,14.40
2019-01-22T12:06:07.171Z,11.73
2019-01-22T12:08:33.475Z,12.93
2019-01-22T12:11:00.352Z,13.50
2019-01-22T12:13:26.641Z,10.83
2019-01-22T12:15:53.218Z,11.73
2019-01-22T12:18:19.878Z,15.97
2019-01-22T12:20:46.688Z,13.20
2019-01-22T12:23:13.297Z,10.93
2019-01-22T12:25:39.930Z,12.67
2019-01-22T12:28:06.657Z,14.13
2019-01-22T12:30:34.620Z,12.70
2019-01-22T12:33:00.981Z,12.03
2019-01-22T12:35:27.636Z,10.83
2019-01-22T12:37:54.245Z,11.10
2019-01-22T12:40:23.200Z,11.70
2019-01-22T12:42:49.835Z,9.57
2019-01-22T12:45:17.786Z,10.33
2019-01-22T12:47:44.550Z,10.07
2019-01-22T12:50:13.560Z,10.83
2019-01-22T12:52:39.822Z,11.60
2019-01-22T12:55:09.613Z,10.70
2019-01-22T12:57:36.138Z,10.97
2019-01-22T13:00:04.701Z,11.20
2019-01-22T13:02:31.418Z,9.43
2019-01-22T13:04:58.025Z,15.95
2019-01-22T13:07:24.690Z,15.57
2019-01-22T13:09:51.327Z,11.70
2019-01-22T13:12:17.947Z,10.93
2019-01-22T13:14:44.541Z,10.87
2019-01-22T13:17:11.174Z,14.63
2019-01-22T13:19:37.813Z,11.93
2019-01-22T13:22:04.546Z,10.70
2019-01-22T13:24:31.197Z,10.77
2019-01-22T13:26:57.729Z,11.50
2019-01-22T13:29:24.019Z,10.10
2019-01-22T13:31:50.282Z,9.80
2019-01-22T13:34:18.138Z,13.23
2019-01-22T13:36:44.442Z,10.13
2019-01-22T13:39:11.649Z,15.53
2019-01-22T13:41:38.281Z,14.27
2019-01-22T13:44:05.633Z,12.40
2019-01-22T13:46:32.270Z,14.10
2019-01-22T13:48:58.915Z,16.45
2019-01-22T13:51:25.245Z,16.42
2019-01-22T13:53:51.849Z,13.37
2019-01-22T13:56:18.876Z,12.33
2019-01-22T13:58:45.505Z,13.30
2019-01-22T14:01:12.235Z,11.87
2019-01-22T14:03:39.322Z,12.73
2019-01-22T14:06:06.458Z,13.17
2019-01-22T14:08:33.085Z,14.97
2019-01-22T14:10:59.746Z,14.10
2019-01-22T14:13:26.022Z,13.90
2019-01-22T14:15:52.766Z,16.10
2019-01-22T14:18:19.038Z,13.40
2019-01-22T14:20:46.194Z,16.85
2019-01-22T14:23:12.807Z,15.30
2019-01-22T14:25:39.190Z,14.10
2019-01-22T14:28:06.077Z,13.45
2019-01-22T14:30:37.681Z,17.90
2019-01-22T14:33:04.549Z,16.47
2019-01-22T14:35:31.202Z,16.33
2019-01-22T14:37:57.826Z,18.65
2019-01-22T14:40:24.446Z,21.57
2019-01-22T14:42:51.161Z,23.47
2019-01-22T14:45:18.606Z,17.57
2019-01-22T14:47:45.327Z,17.30
2019-01-22T14:50:19.193Z,14.43
2019-01-22T14:52:45.782Z,13.77
2019-01-22T14:55:12.506Z,16.83
2019-01-22T14:57:39.217Z,15.70
2019-01-22T15:00:07.841Z,20.25
2019-01-22T15:02:34.489Z,21.73
2019-01-22T15:05:01.549Z,21.23
2019-01-22T15:07:28.233Z,17.17
2019-01-22T15:09:54.850Z,20.60
2019-01-22T15:12:21.486Z,20.03
2019-01-22T15:14:47.752Z,24.98
2019-01-22T15:17:15.005Z,20.03
2019-01-22T15:19:41.378Z,20.73
2019-01-22T15:22:08.018Z,18.43
2019-01-22T15:24:34.279Z,19.97
2019-01-22T15:27:00.554Z,19.93
2019-01-22T15:29:27.177Z,23.97
2019-01-22T15:31:53.817Z,20.50
2019-01-22T15:34:20.186Z,21.20
2019-01-22T15:36:46.845Z,17.40
2019-01-22T15:39:13.456Z,19.43
2019-01-22T15:41:41.222Z,17.43
2019-01-22T15:44:11.097Z,19.50
2019-01-22T15:46:37.764Z,19.10
2019-01-22T15:49:04.382Z,18.37
2019-01-22T15:51:31.031Z,21.43
2019-01-22T15:53:58.133Z,18.93
2019-01-22T15:56:24.781Z,20.93
2019-01-22T15:58:51.410Z,21.37
2019-01-22T16:01:18.128Z,76.53
2019-01-22T16:03:44.733Z,48.90
2019-01-22T16:06:11.368Z,30.90
2019-01-22T16:08:37.990Z,22.70
2019-01-22T16:11:04.605Z,20.80
2019-01-22T16:13:31.249Z,19.70
2019-01-22T16:15:57.881Z,20.13
2019-01-22T16:18:24.189Z,19.13
2019-01-22T16:20:50.811Z,21.07
2019-01-22T16:23:17.437Z,22.97
2019-01-22T16:25:43.698Z,19.57
2019-01-22T16:28:10.339Z,20.90
2019-01-22T16:30:37.119Z,21.77
2019-01-22T16:33:03.759Z,22.00
2019-01-22T16:35:30.126Z,26.93
2019-01-22T16:37:56.713Z,24.83
2019-01-22T16:40:23.353Z,20.80
2019-01-22T16:42:50.001Z,22.83
2019-01-22T16:45:27.747Z,17.17
2019-01-22T16:47:54.411Z,19.73
2019-01-22T16:50:21.295Z,21.43
2019-01-22T16:52:48.024Z,18.00
2019-01-22T16:55:20.283Z,20.40
2019-01-22T16:57:47.700Z,20.67
2019-01-22T17:00:15.929Z,21.93
2019-01-22T17:02:42.565Z,19.13
2019-01-22T17:05:09.295Z,21.00
2019-01-22T17:07:35.985Z,22.27
2019-01-22T17:10:04.497Z,19.77
2019-01-22T17:12:30.785Z,18.87
2019-01-22T17:14:57.397Z,19.77
2019-01-22T17:17:23.689Z,22.17
2019-01-22T17:19:53.117Z,18.17
2019-01-22T17:22:19.754Z,20.87
2019-01-22T17:24:46.003Z,22.10
2019-01-22T17:27:12.633Z,20.70
2019-01-22T17:29:39.257Z,20.87
2019-01-22T17:32:07.521Z,21.27
2019-01-22T17:34:35.842Z,19.23
2019-01-22T17:37:02.233Z,20.53
2019-01-22T17:39:28.901Z,19.50
2019-01-22T17:41:55.514Z,20.13
2019-01-22T17:44:22.161Z,21.33
2019-01-22T17:46:48.397Z,18.93
2019-01-22T17:49:15.061Z,19.27
2019-01-22T17:51:41.693Z,18.53
2019-01-22T17:54:08.352Z,22.60
2019-01-22T17:56:35.278Z,18.53
2019-01-22T17:59:01.950Z,28.17
2019-01-22T18:01:28.573Z,22.07
2019-01-22T18:03:57.514Z,17.83
2019-01-22T18:06:23.802Z,19.70
2019-01-22T18:08:50.445Z,18.20
2019-01-22T18:11:17.062Z,20.00
2019-01-22T18:13:43.335Z,20.93
2019-01-22T18:16:09.957Z,20.77
2019-01-22T18:18:36.590Z,21.30
2019-01-22T18:21:03.211Z,21.40
2019-01-22T18:23:29.509Z,23.77
2019-01-22T18:25:56.369Z,23.73
2019-01-22T18:28:23.022Z,17.20
2019-01-22T18:30:49.375Z,20.47
2019-01-22T18:33:16.025Z,17.80
2019-01-22T18:35:42.399Z,21.83
2019-01-22T18:38:08.889Z,21.53
2019-01-22T18:40:35.514Z,20.67
2019-01-22T18:43:02.134Z,21.90
2019-01-22T18:45:28.850Z,21.33
2019-01-22T18:47:55.464Z,22.20
2019-01-22T18:50:23.358Z,19.97
2019-01-22T18:52:50.320Z,19.17
2019-01-22T18:55:18.100Z,19.67
2019-01-22T18:57:44.738Z,16.80
2019-01-22T19:00:19.185Z,19.80
2019-01-22T19:02:45.772Z,20.30
2019-01-22T19:05:12.509Z,23.07
2019-01-22T19:07:38.777Z,22.43
2019-01-22T19:10:08.781Z,18.80
2019-01-22T19:12:35.392Z,19.60
2019-01-22T19:15:03.428Z,23.67
2019-01-22T19:17:29.717Z,19.00
2019-01-22T19:19:56.360Z,19.17
2019-01-22T19:22:22.891Z,23.30
2019-01-22T19:24:49.173Z,23.93
2019-01-22T19:27:15.792Z,21.13
2019-01-22T19:29:42.081Z,21.33
2019-01-22T19:32:08.710Z,21.73
2019-01-22T19:34:35.345Z,21.67
2019-01-22T19:37:01.968Z,25.47
2019-01-22T19:39:28.598Z,21.50
2019-01-22T19:41:55.210Z,19.20
2019-01-22T19:44:21.726Z,19.13
2019-01-22T19:46:48.338Z,23.30
2019-01-22T19:49:15.442Z,20.33
2019-01-22T19:51:42.034Z,21.57
2019-01-22T19:54:08.790Z,21.63
2019-01-22T19:56:35.030Z,24.12
2019-01-22T19:59:02.093Z,25.30
2019-01-22T20:01:28.718Z,23.33
2019-01-22T20:03:55.326Z,22.20
2019-01-22T20:06:22.009Z,18.90
2019-01-22T20:08:48.282Z,16.87
2019-01-22T20:11:15.030Z,24.30
2019-01-22T20:13:43.045Z,20.00
2019-01-22T20:16:09.327Z,21.10
2019-01-22T20:18:35.591Z,23.63
2019-01-22T20:21:02.339Z,22.33
2019-01-22T20:23:28.601Z,19.07
2019-01-22T20:25:55.255Z,21.80
2019-01-22T20:28:21.870Z,18.27
2019-01-22T20:30:48.627Z,17.67
2019-01-22T20:33:15.196Z,17.83
2019-01-22T20:35:41.480Z,21.67
2019-01-22T20:38:08.089Z,24.53
2019-01-22T20:40:34.471Z,21.80
2019-01-22T20:43:01.200Z,18.20
2019-01-22T20:45:29.181Z,20.80
2019-01-22T20:47:55.802Z,20.53
2019-01-22T20:50:24.030Z,20.43
2019-01-22T20:52:50.303Z,20.03
2019-01-22T20:55:19.062Z,22.17
2019-01-22T20:57:45.698Z,17.37
2019-01-22T21:00:13.555Z,18.60
2019-01-22T21:02:40.165Z,23.93
2019-01-22T21:05:08.730Z,18.67
2019-01-22T21:07:35.583Z,19.17
2019-01-22T21:10:04.121Z,18.90
2019-01-22T21:12:30.750Z,19.20
2019-01-22T21:14:57.022Z,18.60
2019-01-22T21:17:23.673Z,23.83
2019-01-22T21:19:52.254Z,21.70
2019-01-22T21:22:19.915Z,21.80
2019-01-22T21:24:47.761Z,23.87
2019-01-22T21:27:14.384Z,24.00
2019-01-22T21:29:41.001Z,27.75
2019-01-22T21:32:07.642Z,25.23
2019-01-22T21:34:33.909Z,24.00
2019-01-22T21:37:00.209Z,22.97
2019-01-22T21:39:26.928Z,20.80
2019-01-22T21:41:53.573Z,22.00
2019-01-22T21:44:20.314Z,25.67
2019-01-22T21:46:47.062Z,22.63
2019-01-22T21:49:13.939Z,20.33
2019-01-22T21:51:40.581Z,18.33
2019-01-22T21:54:07.200Z,19.73
2019-01-22T21:56:33.860Z,20.73
2019-01-22T21:59:00.485Z,20.03
2019-01-22T22:01:27.240Z,19.27
2019-01-22T22:03:53.532Z,21.63
2019-01-22T22:06:19.802Z,19.50
2019-01-22T22:08:46.726Z,18.53
2019-01-22T22:11:13.012Z,17.60
2019-01-22T22:13:39.642Z,17.27
2019-01-22T22:16:06.556Z,15.10
2019-01-22T22:18:33.176Z,20.77
2019-01-22T22:20:59.801Z,17.07
2019-01-22T22:23:26.185Z,19.47
2019-01-22T22:25:52.559Z,19.63
2019-01-22T22:28:19.583Z,21.33
2019-01-22T22:30:45.840Z,21.67
2019-01-22T22:33:12.133Z,16.73
2019-01-22T22:35:38.863Z,20.00
2019-01-22T22:38:05.520Z,20.07
2019-01-22T22:40:31.778Z,18.77
2019-01-22T22:42:58.056Z,23.33
2019-01-22T22:45:24.781Z,22.00
2019-01-22T22:47:51.569Z,18.77
2019-01-22T22:50:20.099Z,20.97
2019-01-22T22:52:46.673Z,20.20
2019-01-22T22:55:13.281Z,21.57
2019-01-22T22:57:39.686Z,19.57
2019-01-22T23:00:14.237Z,19.33
2019-01-22T23:02:40.909Z,17.83
2019-01-22T23:05:07.529Z,18.60
2019-01-22T23:07:34.171Z,20.17
2019-01-22T23:10:00.429Z,18.60
2019-01-22T23:12:26.681Z,18.63
2019-01-22T23:14:53.317Z,19.87
2019-01-22T23:17:19.582Z,16.90
2019-01-22T23:19:46.497Z,20.43
2019-01-22T23:22:13.124Z,19.07
2019-01-22T23:24:39.773Z,18.23
2019-01-22T23:27:06.128Z,20.27
2019-01-22T23:29:32.446Z,17.43
2019-01-22T23:31:59.200Z,20.60
2019-01-22T23:34:25.724Z,17.97
2019-01-22T23:36:51.965Z,17.47
2019-01-22T23:39:18.270Z,18.17
2019-01-22T23:41:44.977Z,18.30
2019-01-22T23:44:11.641Z,18.90
2019-01-22T23:46:37.891Z,19.60
2019-01-22T23:49:04.146Z,17.77
2019-01-22T23:51:30.445Z,16.03
2019-01-22T23:53:56.705Z,18.77
2019-01-22T23:56:23.502Z,18.77
2019-01-22T23:58:50.149Z,19.20
